CheckWX is a tool to help pilots better visualize weather data.  It is not intended as a substitute for an official pre-flight weather briefing.

15:03:29 UTC

FWCL METAR
Chileka International Airport
Blantyre, Malawi
Current

5 hours ago

FWCL 161000Z 21012KT 9999 BKN022 21/12 Q1026 NOSIG
Observed
Jul-16 @ 10:00 UTC
Wind
  • 210° at 12 KTS
Visibility
10,000+ meters
Flight Rules
MVFR
Cloud Levels
  • Broken at 2,200' AGL
Temperature
21°C / 70°F
Dewpoint
12°C / 54°F
Humidity
57%
Altimeter
30.3" Hg
Pressure
1025.92 hPa
Previous

6 hours ago

FWCL 160900Z 35004KT 9999 BKN022 22/12 Q1027 NOSIG
Observed
Jul-16 @ 09:00 UTC
Wind
  • 350° at 4 KTS
Visibility
10,000+ meters
Flight Rules
MVFR
Cloud Levels
  • Broken at 2,200' AGL
Temperature
22°C / 72°F
Dewpoint
12°C / 54°F
Humidity
53%
Altimeter
30.32" Hg
Pressure
1026.92 hPa
Previous

8 hours ago

FWCL 160700Z 09005KT 9999 FEW020 20/12 Q1027 NOSIG
Observed
Jul-16 @ 07:00 UTC
Wind
  • 090° at 5 KTS
Visibility
10,000+ meters
Flight Rules
VFR
Cloud Levels
  • Few at 2,000' AGL
Temperature
20°C / 68°F
Dewpoint
12°C / 54°F
Humidity
60%
Altimeter
30.32" Hg
Pressure
1026.92 hPa